createdAt,value
2023-03-04T00:01:08.566Z,91.99
2023-03-04T00:05:11.884Z,92.48
2023-03-04T00:07:13.903Z,92.39
2023-03-04T00:09:15.609Z,92.34
2023-03-04T00:11:16.851Z,92.3
2023-03-04T00:13:18.208Z,92.28
2023-03-04T00:15:20.181Z,92.07
2023-03-04T00:17:22.049Z,91.97
2023-03-04T00:19:23.478Z,91.94
2023-03-04T00:21:25.111Z,91.94
2023-03-04T00:23:27.356Z,92.14
2023-03-04T00:25:28.856Z,92.41
2023-03-04T00:27:30.741Z,92.62
2023-03-04T00:29:32.515Z,92.35
2023-03-04T00:31:33.545Z,92.44
2023-03-04T00:33:35.122Z,92.64
2023-03-04T00:37:38.374Z,92.54
2023-03-04T00:39:40.115Z,92.47
2023-03-04T00:41:42.039Z,92.47
2023-03-04T00:43:43.805Z,92.81
2023-03-04T00:47:47.727Z,93.15
2023-03-04T00:49:49.829Z,93.17
2023-03-04T00:51:51.405Z,93.19
2023-03-04T00:53:52.679Z,93.07
2023-03-04T00:55:54.287Z,92.92
2023-03-04T00:57:55.612Z,93.1
2023-03-04T00:59:56.814Z,93.33
2023-03-04T01:01:58.757Z,93.16
2023-03-04T01:04:00.003Z,93.07
2023-03-04T01:06:01.570Z,93.11
2023-03-04T01:08:02.939Z,93.02
2023-03-04T01:10:04.045Z,93.33
2023-03-04T01:12:05.699Z,93.45
2023-03-04T01:14:06.953Z,94.1
2023-03-04T01:16:08.806Z,94.27
2023-03-04T01:18:10.153Z,94.28
2023-03-04T01:20:11.333Z,94.11
2023-03-04T01:22:12.663Z,93.97
2023-03-04T01:24:14.020Z,93.9
2023-03-04T01:26:15.218Z,94.41
2023-03-04T01:28:16.536Z,94.43
2023-03-04T01:30:17.905Z,94.29
2023-03-04T01:32:19.988Z,94.03
2023-03-04T01:36:24.331Z,94.47
2023-03-04T01:38:24.540Z,94.53
2023-03-04T01:40:26.342Z,94.5
2023-03-04T01:42:28.275Z,94.47
2023-03-04T01:46:31.763Z,94.85
2023-03-04T01:48:33.715Z,95.01
2023-03-04T01:50:35.719Z,95
2023-03-04T01:52:37.350Z,95.01
2023-03-04T01:54:39.284Z,95.02
2023-03-04T01:56:41.366Z,95.1
2023-03-04T01:58:43.143Z,95.05
2023-03-04T02:02:46.682Z,94.83
2023-03-04T02:04:48.344Z,94.89
2023-03-04T02:06:50.269Z,94.75
2023-03-04T02:08:51.797Z,94.62
2023-03-04T02:12:55.013Z,94.38
2023-03-04T02:14:56.388Z,94.25
2023-03-04T02:16:57.514Z,94.2
2023-03-04T02:18:58.764Z,94.24
2023-03-04T02:21:00.799Z,94.66
2023-03-04T02:23:01.977Z,94.74
2023-03-04T02:25:03.132Z,94.79
2023-03-04T02:27:48.795Z,94.92
2023-03-04T02:29:50.491Z,94.83
2023-03-04T02:31:52.493Z,94.71
2023-03-04T02:33:54.164Z,94.7
2023-03-04T02:35:56.109Z,94.73
2023-03-04T02:37:58.172Z,94.67
2023-03-04T02:39:59.498Z,94.85
2023-03-04T02:42:01.505Z,94.9
2023-03-04T02:44:03.360Z,94.98
2023-03-04T02:46:04.796Z,95.03
2023-03-04T02:48:06.301Z,95
2023-03-04T02:50:08.279Z,94.95
2023-03-04T02:52:10.207Z,94.96
2023-03-04T02:54:12.159Z,94.89
2023-03-04T02:56:13.365Z,94.79
2023-03-04T02:58:15.077Z,94.81
2023-03-04T03:00:17.059Z,94.76
2023-03-04T03:02:19.099Z,94.68
2023-03-04T03:04:21.018Z,94.59
2023-03-04T03:06:22.213Z,94.57
2023-03-04T03:08:23.596Z,94.46
2023-03-04T03:10:24.868Z,94.51
2023-03-04T03:12:26.923Z,94.54
2023-03-04T03:14:28.449Z,94.46
2023-03-04T03:16:30.066Z,94.38
2023-03-04T03:18:31.975Z,94.29
2023-03-04T03:20:33.517Z,94.35
2023-03-04T03:22:35.301Z,94.36
2023-03-04T03:24:36.932Z,94.45
2023-03-04T03:26:38.843Z,94.99
2023-03-04T03:28:40.297Z,95.15
2023-03-04T03:30:41.812Z,95.01
2023-03-04T03:32:44.000Z,95.27
2023-03-04T03:34:45.826Z,95.14
2023-03-04T03:38:48.607Z,95.11
2023-03-04T03:40:49.984Z,95.2
2023-03-04T03:42:51.425Z,95.58
2023-03-04T03:44:52.866Z,95.54
2023-03-04T03:48:56.457Z,95.68
2023-03-04T03:50:57.780Z,95.72
2023-03-04T03:52:59.292Z,95.8
2023-03-04T03:55:01.848Z,95.87
2023-03-04T03:57:02.951Z,95.81
2023-03-04T03:59:04.220Z,95.81
2023-03-04T04:01:06.305Z,95.65
2023-03-04T04:03:07.519Z,95.61
2023-03-04T04:05:09.149Z,95.59
2023-03-04T04:07:10.849Z,95.54
2023-03-04T04:09:12.009Z,95.51
2023-03-04T04:11:13.407Z,95.56
2023-03-04T04:13:14.601Z,95.51
2023-03-04T04:15:16.439Z,95.5
2023-03-04T04:17:18.253Z,95.41
2023-03-04T04:21:20.921Z,95.37
2023-03-04T04:23:22.500Z,95.26
2023-03-04T04:25:23.874Z,95.17
2023-03-04T04:27:25.064Z,95.11
2023-03-04T04:31:27.800Z,95.02
2023-03-04T04:33:29.732Z,94.08
2023-03-04T04:35:31.742Z,94.1
2023-03-04T04:37:32.887Z,94.16
2023-03-04T04:39:34.802Z,94.1
2023-03-04T04:41:36.191Z,93.85
2023-03-04T04:43:38.046Z,93.98
2023-03-04T04:45:40.046Z,94.07
2023-03-04T04:47:41.834Z,94.37
2023-03-04T04:49:43.133Z,94.5
2023-03-04T04:51:45.005Z,94.23
2023-03-04T04:53:46.464Z,93.88
2023-03-04T04:55:48.084Z,93.83
2023-03-04T04:57:49.270Z,93.77
2023-03-04T04:59:50.909Z,93.72
2023-03-04T05:01:52.193Z,93.64
2023-03-04T05:03:54.086Z,93.76
2023-03-04T05:05:55.268Z,93.9
2023-03-04T05:07:56.669Z,94.07
2023-03-04T05:09:58.136Z,94.16
2023-03-04T05:14:01.389Z,93.91
2023-03-04T05:16:02.966Z,93.46
2023-03-04T05:18:04.929Z,93.5
2023-03-04T05:20:06.100Z,93.36
2023-03-04T05:22:07.195Z,93.4
2023-03-04T05:24:08.962Z,93.53
2023-03-04T05:26:10.626Z,93.76
2023-03-04T05:28:12.681Z,93.81
2023-03-04T05:30:13.937Z,93.78
2023-03-04T05:32:15.735Z,93.38
2023-03-04T05:34:17.137Z,93.58
2023-03-04T05:36:18.268Z,93.69
2023-03-04T05:38:19.764Z,93.75
2023-03-04T05:40:21.529Z,94.1
2023-03-04T05:42:23.457Z,94.1
2023-03-04T05:44:24.930Z,93.77
2023-03-04T05:46:26.234Z,93.87
2023-03-04T05:48:27.836Z,93.91
2023-03-04T05:50:29.480Z,94.07
2023-03-04T05:52:31.429Z,94.31
2023-03-04T05:56:34.851Z,94.74
2023-03-04T05:58:36.360Z,94.88
2023-03-04T06:00:38.195Z,94.81
2023-03-04T06:02:39.921Z,94.84
2023-03-04T06:04:41.613Z,94.88
2023-03-04T06:06:43.217Z,94.92
2023-03-04T06:08:45.234Z,95.13
2023-03-04T06:10:46.417Z,95.03
2023-03-04T06:12:48.178Z,94.76
2023-03-04T06:14:49.876Z,94.4
2023-03-04T06:16:51.771Z,94.32
2023-03-04T06:18:53.062Z,94.35
2023-03-04T06:20:54.641Z,94.39
2023-03-04T06:22:56.477Z,94.5
2023-03-04T06:24:57.928Z,94.65
2023-03-04T06:26:58.993Z,94.53
2023-03-04T06:29:00.564Z,94.16
2023-03-04T06:31:02.048Z,94.28
2023-03-04T06:33:03.154Z,94.43
2023-03-04T06:35:04.629Z,94.47
2023-03-04T06:39:07.385Z,94.63
2023-03-04T06:41:09.170Z,94.65
2023-03-04T06:43:10.997Z,94.74
2023-03-04T06:45:12.637Z,94.6
2023-03-04T06:47:14.302Z,94.56
2023-03-04T06:49:16.053Z,94.51
2023-03-04T06:51:17.850Z,94.5
2023-03-04T06:53:19.768Z,94.52
2023-03-04T06:55:21.239Z,94.53
2023-03-04T06:57:23.291Z,94.05
2023-03-04T06:59:25.016Z,93.82
2023-03-04T07:01:26.419Z,93.79
2023-03-04T07:03:28.102Z,93.82
2023-03-04T07:05:29.454Z,93.62
2023-03-04T07:07:32.220Z,93.21
2023-03-04T07:09:34.078Z,93.19
2023-03-04T07:11:35.193Z,93.36
2023-03-04T07:13:36.874Z,93.42
2023-03-04T07:15:38.517Z,93.5
2023-03-04T07:17:39.877Z,93.47
2023-03-04T07:21:43.496Z,93.02
2023-03-04T07:23:45.523Z,93.14
2023-03-04T07:25:47.121Z,93.26
2023-03-04T07:27:49.155Z,93.34
2023-03-04T07:29:50.570Z,93.65
2023-03-04T07:31:53.653Z,93.17
2023-03-04T07:33:53.470Z,93.35
2023-03-04T07:35:55.061Z,93.42
2023-03-04T07:37:56.099Z,93.58
2023-03-04T07:39:57.629Z,93.58
2023-03-04T07:41:58.891Z,93.48
2023-03-04T07:44:00.377Z,93.5
2023-03-04T07:46:01.521Z,93.46
2023-03-04T07:48:03.339Z,93.34
2023-03-04T07:50:05.032Z,93.4
2023-03-04T07:52:06.171Z,93.37
2023-03-04T07:54:07.971Z,92.83
2023-03-04T07:56:09.646Z,92.7
2023-03-04T07:58:11.062Z,92.8
2023-03-04T08:00:12.253Z,92.06
2023-03-04T08:04:15.898Z,92.04
2023-03-04T08:06:17.847Z,92.05
2023-03-04T08:08:19.668Z,91.8
2023-03-04T08:10:20.776Z,91.7
2023-03-04T08:12:22.224Z,91.47
2023-03-04T08:14:23.429Z,91.35
2023-03-04T08:16:25.382Z,91.27
2023-03-04T08:18:26.757Z,91.02
2023-03-04T08:20:27.800Z,90.66
2023-03-04T08:22:28.949Z,90.51
2023-03-04T08:24:30.603Z,90.94
2023-03-04T08:26:31.717Z,89.8
2023-03-04T08:28:33.382Z,89.9
2023-03-04T08:30:35.138Z,89.4
2023-03-04T08:32:45.792Z,89.15
2023-03-04T08:36:39.334Z,89.13
2023-03-04T08:38:40.744Z,89.07
2023-03-04T08:40:42.065Z,88.38
2023-03-04T08:42:52.533Z,87.36
2023-03-04T08:46:47.199Z,85.88
2023-03-04T08:48:48.634Z,85.37
2023-03-04T08:50:49.955Z,84.53
2023-03-04T08:52:51.630Z,84.36
2023-03-04T08:54:52.871Z,84.46
2023-03-04T08:56:54.220Z,84.41
2023-03-04T08:58:55.639Z,84.05
2023-03-04T09:00:56.583Z,83.72
2023-03-04T09:02:58.595Z,83.14
2023-03-04T09:04:59.664Z,82.98
2023-03-04T09:07:00.710Z,83.3
2023-03-04T09:09:02.502Z,82.83
2023-03-04T09:11:05.299Z,83.18
2023-03-04T09:11:49.244Z,83.1
2023-03-04T09:13:55.574Z,82.83
2023-03-04T09:15:52.568Z,82.47
2023-03-04T09:17:54.189Z,82.68
2023-03-04T09:19:56.814Z,82
2023-03-04T09:21:57.506Z,83.08
2023-03-04T09:23:59.003Z,83.31
2023-03-04T09:26:00.176Z,83.29
2023-03-04T09:30:02.836Z,82.41
2023-03-04T09:32:04.277Z,82.27
2023-03-04T09:34:05.975Z,82.12
2023-03-04T09:36:07.710Z,82.14
2023-03-04T09:40:10.686Z,82.06
2023-03-04T09:42:11.912Z,81.26
2023-03-04T09:44:13.741Z,80.88
2023-03-04T09:46:15.157Z,81.72
2023-03-04T09:48:16.328Z,80.56
2023-03-04T09:50:17.557Z,79.99
2023-03-04T09:52:18.869Z,79.79
2023-03-04T09:54:20.135Z,80.62
2023-03-04T09:56:21.269Z,80.95
2023-03-04T09:58:22.412Z,80.79
2023-03-04T10:00:23.978Z,80.22
2023-03-04T10:02:25.502Z,79.92
2023-03-04T10:04:26.816Z,80.69
2023-03-04T10:06:28.476Z,80.27
2023-03-04T10:08:29.464Z,79.7
2023-03-04T10:10:31.009Z,79.65
2023-03-04T10:12:32.611Z,80.79
2023-03-04T10:14:34.009Z,79.4
2023-03-04T10:16:35.574Z,79.37
2023-03-04T10:18:37.023Z,79.4
2023-03-04T10:22:40.243Z,79.01
2023-03-04T10:24:41.490Z,79.07
2023-03-04T10:26:42.853Z,79.36
2023-03-04T10:28:44.843Z,78.44
2023-03-04T10:30:45.924Z,78.39
2023-03-04T10:32:47.340Z,78.9
2023-03-04T10:34:48.924Z,79.05
2023-03-04T10:36:50.118Z,78.74
2023-03-04T10:38:51.188Z,78.32
2023-03-04T10:40:52.861Z,79.21
2023-03-04T10:42:54.228Z,78.81
2023-03-04T10:44:55.521Z,78.53
2023-03-04T10:46:56.489Z,79.01
2023-03-04T10:48:57.708Z,77.87
2023-03-04T10:50:59.045Z,77.29
2023-03-04T10:55:01.701Z,78.06
2023-03-04T10:57:03.212Z,77.43
2023-03-04T10:59:04.588Z,77.11
2023-03-04T11:01:05.881Z,77.13
2023-03-04T11:05:09.263Z,77.39
2023-03-04T11:07:10.325Z,76.26
2023-03-04T11:09:11.606Z,76.99
2023-03-04T11:11:13.056Z,76.39
2023-03-04T11:13:14.779Z,77.01
2023-03-04T11:15:16.483Z,75.94
2023-03-04T11:17:17.958Z,75.68
2023-03-04T11:19:19.912Z,75.26
2023-03-04T11:21:21.653Z,74.85
2023-03-04T11:23:22.978Z,75.67
2023-03-04T11:27:25.820Z,74.99
2023-03-04T11:29:27.441Z,75.35
2023-03-04T11:31:28.901Z,74.94
2023-03-04T11:33:30.864Z,74.81
2023-03-04T11:37:34.251Z,74.79
2023-03-04T11:39:35.969Z,75.55
2023-03-04T11:41:37.876Z,75.86
2023-03-04T11:43:39.524Z,75.55
2023-03-04T11:45:41.100Z,75.52
2023-03-04T11:47:42.465Z,75.46
2023-03-04T11:49:44.136Z,74.85
2023-03-04T11:51:45.923Z,74.79
2023-03-04T11:53:47.779Z,74.96
2023-03-04T11:55:49.655Z,75.05
2023-03-04T11:57:51.563Z,75.13
2023-03-04T11:59:53.346Z,75.8
2023-03-04T12:01:54.423Z,75.13
2023-03-04T12:03:56.259Z,75.91
2023-03-04T12:05:57.415Z,75.26
2023-03-04T12:07:59.082Z,75.2
2023-03-04T12:10:00.764Z,74.42
2023-03-04T12:12:01.971Z,74.27
2023-03-04T12:14:03.790Z,74.36
2023-03-04T12:16:05.632Z,74.67
2023-03-04T12:20:08.335Z,74.05
2023-03-04T12:22:10.269Z,74
2023-03-04T12:24:11.737Z,73.99
2023-03-04T12:26:13.429Z,74.45
2023-03-04T12:28:14.820Z,73.77
2023-03-04T12:30:16.235Z,74.23
2023-03-04T12:32:18.563Z,74.09
2023-03-04T12:34:19.757Z,74.81
2023-03-04T12:36:21.083Z,74.1
2023-03-04T12:38:22.495Z,74.88
2023-03-04T12:40:23.473Z,74.83
2023-03-04T12:42:24.942Z,73.98
2023-03-04T12:44:26.492Z,74.63
2023-03-04T12:46:27.850Z,74.53
2023-03-04T12:48:29.694Z,74.42
2023-03-04T12:50:31.465Z,74.27
2023-03-04T12:52:32.461Z,73.76
2023-03-04T12:54:33.816Z,73.95
2023-03-04T12:56:34.829Z,73.78
2023-03-04T12:58:35.831Z,74.53
2023-03-04T13:02:39.004Z,74.31
2023-03-04T13:04:40.611Z,74.88
2023-03-04T13:06:42.385Z,74.62
2023-03-04T13:08:44.222Z,74.35
2023-03-04T13:10:45.403Z,74.92
2023-03-04T13:12:46.939Z,74.81
2023-03-04T13:14:48.086Z,73.97
2023-03-04T13:16:49.692Z,74.39
2023-03-04T13:18:50.795Z,74.31
2023-03-04T13:20:51.898Z,74.77
2023-03-04T13:22:53.473Z,74.64
2023-03-04T13:24:54.922Z,74.43
2023-03-04T13:26:56.136Z,74.83
2023-03-04T13:28:58.146Z,74.75
2023-03-04T13:30:59.097Z,75.04
2023-03-04T13:33:00.226Z,74.59
2023-03-04T13:35:02.176Z,74.58
2023-03-04T13:37:04.072Z,74.77
2023-03-04T13:39:05.106Z,74.56
2023-03-04T13:41:06.217Z,74.83
2023-03-04T13:43:07.233Z,74.94
2023-03-04T13:45:08.885Z,75.08
2023-03-04T13:47:10.690Z,75.06
2023-03-04T13:51:27.372Z,75.75
2023-03-04T13:53:14.854Z,75.11
2023-03-04T13:55:16.822Z,75.06
2023-03-04T13:57:17.943Z,75.27
2023-03-04T14:01:21.183Z,74.12
2023-03-04T14:03:22.916Z,74.81
2023-03-04T14:05:24.197Z,74.44
2023-03-04T14:07:25.213Z,75.01
2023-03-04T14:09:26.816Z,74.4
2023-03-04T14:11:28.416Z,74.41
2023-03-04T14:13:30.049Z,74.99
2023-03-04T14:15:31.167Z,74.12
2023-03-04T14:17:32.408Z,73.89
2023-03-04T14:19:34.371Z,74.36
2023-03-04T14:21:35.547Z,74.07
2023-03-04T14:23:36.989Z,74.3
2023-03-04T14:25:38.735Z,74.1
2023-03-04T14:27:39.728Z,74.42
2023-03-04T14:29:41.019Z,73.82
2023-03-04T14:33:43.736Z,73.43
2023-03-04T14:35:45.017Z,73.67
2023-03-04T14:37:46.690Z,73.66
2023-03-04T14:39:48.204Z,73.87
2023-03-04T14:43:51.328Z,73.93
2023-03-04T14:45:53.254Z,74
2023-03-04T14:47:55.103Z,73.89
2023-03-04T14:49:56.064Z,73.67
2023-03-04T14:51:57.716Z,73.71
2023-03-04T14:53:59.045Z,73.63
2023-03-04T14:56:00.710Z,74.11
2023-03-04T14:58:02.374Z,73.49
2023-03-04T15:00:03.423Z,73.89
2023-03-04T15:02:05.241Z,73.54
2023-03-04T15:04:06.993Z,73.65
2023-03-04T15:06:08.281Z,74.04
2023-03-04T15:08:09.531Z,73.73
2023-03-04T15:10:10.736Z,73.72
2023-03-04T15:12:12.349Z,73.98
2023-03-04T15:14:13.504Z,74.35
2023-03-04T15:16:15.371Z,74.13
2023-03-04T15:18:16.387Z,74.06
2023-03-04T15:20:17.622Z,74.11
2023-03-04T15:22:18.677Z,74.37
2023-03-04T15:26:21.479Z,73.91
2023-03-04T15:28:23.640Z,74.18
2023-03-04T15:30:25.370Z,74.1
2023-03-04T15:32:27.337Z,74.16
2023-03-04T15:34:29.094Z,74.2
2023-03-04T15:36:30.717Z,74.31
2023-03-04T15:38:31.963Z,74.68
2023-03-04T15:40:33.376Z,74.51
2023-03-04T15:42:34.393Z,74.49
2023-03-04T15:44:35.561Z,74.8
2023-03-04T15:46:36.943Z,74.38
2023-03-04T15:48:38.634Z,74.45
2023-03-04T15:50:40.493Z,74.53
2023-03-04T15:52:41.959Z,74.35
2023-03-04T15:54:43.869Z,74.55
2023-03-04T15:57:29.073Z,74.35
2023-03-04T15:59:30.406Z,74.49
2023-03-04T16:03:34.091Z,74.24
2023-03-04T16:05:35.792Z,74.45
2023-03-04T16:07:37.337Z,74.33
2023-03-04T16:09:38.589Z,74.48
2023-03-04T16:11:39.943Z,74.72
2023-03-04T16:13:41.312Z,74.53
2023-03-04T16:15:42.412Z,74.88
2023-03-04T16:17:43.896Z,74.55
2023-03-04T16:19:45.556Z,74.5
2023-03-04T16:21:47.185Z,74.71
2023-03-04T16:23:48.620Z,75.07
2023-03-04T16:25:50.492Z,74.96
2023-03-04T16:27:51.481Z,74.97
2023-03-04T16:29:53.391Z,75.31
2023-03-04T16:31:55.100Z,75.16
2023-03-04T16:35:58.860Z,75.1
2023-03-04T16:38:00.477Z,75.44
2023-03-04T16:40:02.197Z,75.3
2023-03-04T16:42:03.861Z,75.48
2023-03-04T16:46:07.438Z,75.63
2023-03-04T16:48:09.319Z,75.64
2023-03-04T16:50:12.022Z,75.6
2023-03-04T16:52:12.388Z,75.55
2023-03-04T16:54:14.157Z,75.77
2023-03-04T16:56:16.645Z,76.18
2023-03-04T16:58:17.102Z,76.46
2023-03-04T17:00:18.980Z,75.78
2023-03-04T17:02:20.170Z,75.95
2023-03-04T17:04:21.425Z,76.23
2023-03-04T17:06:23.242Z,76.27
2023-03-04T17:08:25.178Z,75.97
2023-03-04T17:10:27.103Z,75.99
2023-03-04T17:12:28.465Z,76.33
2023-03-04T17:14:29.830Z,76.68
2023-03-04T17:18:32.780Z,76.83
2023-03-04T17:20:34.101Z,77.08
2023-03-04T17:22:35.388Z,77.04
2023-03-04T17:24:37.087Z,77.27
2023-03-04T17:28:39.932Z,77.03
2023-03-04T17:30:41.933Z,77.06
2023-03-04T17:32:43.012Z,76.85
2023-03-04T17:34:44.492Z,76.88
2023-03-04T17:36:45.689Z,76.87
2023-03-04T17:38:46.922Z,76.76
2023-03-04T17:40:48.421Z,76.87
2023-03-04T17:42:50.237Z,77.07
2023-03-04T17:44:51.389Z,77
2023-03-04T17:46:52.740Z,77.14
2023-03-04T17:48:53.790Z,77.13
2023-03-04T17:50:55.461Z,77.11
2023-03-04T17:52:57.475Z,77.01
2023-03-04T17:54:58.941Z,77.18
2023-03-04T17:56:59.948Z,77.2
2023-03-04T17:59:01.610Z,77.25
2023-03-04T18:01:03.263Z,77.12
2023-03-04T18:03:04.806Z,76.92
2023-03-04T18:05:06.678Z,76.68
2023-03-04T18:07:08.642Z,76.85
2023-03-04T18:11:12.022Z,77.04
2023-03-04T18:13:13.842Z,76.66
2023-03-04T18:15:15.512Z,76.92
2023-03-04T18:17:17.169Z,76.84
2023-03-04T18:19:18.710Z,76.87
2023-03-04T18:21:19.659Z,77.01
2023-03-04T18:23:21.089Z,77.1
2023-03-04T18:25:22.381Z,77.17
2023-03-04T18:27:23.812Z,77.18
2023-03-04T18:29:25.716Z,77.26
2023-03-04T18:31:30.258Z,77.32
2023-03-04T18:33:28.996Z,77.4
2023-03-04T18:35:30.204Z,77.3
2023-03-04T18:37:31.283Z,77.55
2023-03-04T18:39:32.832Z,77.37
2023-03-04T18:41:34.317Z,77.72
2023-03-04T18:43:36.099Z,77.73
2023-03-04T18:45:37.660Z,77.61
2023-03-04T18:47:39.324Z,77.65
2023-03-04T18:49:40.414Z,77.62
2023-03-04T18:51:41.850Z,77.75
2023-03-04T18:53:43.214Z,77.72
2023-03-04T18:55:44.864Z,77.88
2023-03-04T18:59:47.357Z,78.25
2023-03-04T19:01:48.432Z,78.24
2023-03-04T19:03:49.596Z,78.38
2023-03-04T19:05:51.280Z,78.42
2023-03-04T19:09:53.504Z,78.49
2023-03-04T19:11:55.147Z,78.49
2023-03-04T19:13:56.934Z,78.27
2023-03-04T19:15:57.939Z,78.59
2023-03-04T19:17:59.508Z,78.45
2023-03-04T19:20:00.767Z,78.37
2023-03-04T19:22:02.099Z,78.46
2023-03-04T19:24:03.869Z,78.58
2023-03-04T19:26:05.137Z,78.63
2023-03-04T19:28:06.710Z,78.59
2023-03-04T19:30:08.648Z,78.76
2023-03-04T19:32:10.029Z,78.92
2023-03-04T19:34:11.881Z,79.14
2023-03-04T19:36:13.733Z,79.01
2023-03-04T19:38:15.088Z,79.19
2023-03-04T19:40:16.719Z,79.37
2023-03-04T19:42:18.211Z,79.22
2023-03-04T19:44:19.859Z,79.35
2023-03-04T19:46:21.572Z,79.54
2023-03-04T19:48:23.389Z,79.68
2023-03-04T19:52:26.191Z,79.93
2023-03-04T19:54:28.021Z,80.05
2023-03-04T19:56:29.068Z,80.04
2023-03-04T19:58:30.674Z,80.07
2023-03-04T20:00:36.847Z,80.36
2023-03-04T20:02:33.271Z,80.47
2023-03-04T20:04:34.375Z,80.45
2023-03-04T20:06:35.363Z,80.57
2023-03-04T20:08:38.425Z,80.52
2023-03-04T20:10:38.131Z,80.55
2023-03-04T20:12:39.288Z,80.71
2023-03-04T20:14:40.817Z,80.71
2023-03-04T20:16:42.343Z,80.86
2023-03-04T20:18:44.061Z,80.91
2023-03-04T20:20:45.834Z,81.04
2023-03-04T20:22:47.696Z,80.97
2023-03-04T20:24:49.389Z,81.18
2023-03-04T20:26:50.415Z,81.26
2023-03-04T20:28:51.952Z,81.3
2023-03-04T20:30:53.397Z,81.52
2023-03-04T20:34:57.136Z,81.68
2023-03-04T20:37:00.043Z,81.76
2023-03-04T20:39:02.671Z,81.81
2023-03-04T20:41:01.199Z,81.75
2023-03-04T20:43:02.938Z,81.89
2023-03-04T20:45:04.271Z,81.87
2023-03-04T20:47:05.872Z,81.85
2023-03-04T20:49:07.966Z,82
2023-03-04T20:51:09.610Z,82
2023-03-04T20:53:11.347Z,81.87
2023-03-04T20:55:12.785Z,82.07
2023-03-04T20:57:14.168Z,82.1
2023-03-04T20:59:16.079Z,82.13
2023-03-04T21:01:17.232Z,82.21
2023-03-04T21:03:18.361Z,82.24
2023-03-04T21:07:20.565Z,82.35
2023-03-04T21:09:22.067Z,82.39
2023-03-04T21:11:23.303Z,82.55
2023-03-04T21:13:24.845Z,82.6
2023-03-04T21:17:27.783Z,82.6
2023-03-04T21:19:29.546Z,82.75
2023-03-04T21:21:31.380Z,82.61
2023-03-04T21:23:33.177Z,82.58
2023-03-04T21:25:35.004Z,82.77
2023-03-04T21:27:36.290Z,82.91
2023-03-04T21:29:37.862Z,83.08
2023-03-04T21:31:39.680Z,83.32
2023-03-04T21:33:41.084Z,83.42
2023-03-04T21:35:42.993Z,83.44
2023-03-04T21:37:44.184Z,83.48
2023-03-04T21:41:46.698Z,83.37
2023-03-04T21:43:48.682Z,83.54
2023-03-04T21:45:49.820Z,83.42
2023-03-04T21:49:53.729Z,83.55
2023-03-04T21:51:55.137Z,83.51
2023-03-04T21:53:56.826Z,83.58
2023-03-04T21:55:58.231Z,83.62
2023-03-04T21:57:59.537Z,83.64
2023-03-04T22:00:00.870Z,83.91
2023-03-04T22:02:02.303Z,83.85
2023-03-04T22:04:04.066Z,83.85
2023-03-04T22:06:06.014Z,84.11
2023-03-04T22:08:07.144Z,84.14
2023-03-04T22:10:08.319Z,84.13
2023-03-04T22:12:09.569Z,84.27
2023-03-04T22:14:10.784Z,84.35
2023-03-04T22:16:12.209Z,84.45
2023-03-04T22:18:13.411Z,84.5
2023-03-04T22:20:14.675Z,84.43
2023-03-04T22:22:15.845Z,84.48
2023-03-04T22:24:17.134Z,84.51
2023-03-04T22:26:19.277Z,84.48
2023-03-04T22:28:21.041Z,84.54
2023-03-04T22:30:22.315Z,84.63
2023-03-04T22:32:24.281Z,84.66
2023-03-04T22:34:25.871Z,84.72
2023-03-04T22:36:27.673Z,84.77
2023-03-04T22:38:29.449Z,84.82
2023-03-04T22:40:31.134Z,84.72
2023-03-04T22:42:32.473Z,84.74
2023-03-04T22:43:16.340Z,84.73
2023-03-04T22:45:17.388Z,84.61
2023-03-04T22:47:19.131Z,84.71
2023-03-04T22:49:20.195Z,84.71
2023-03-04T22:53:24.864Z,84.66
2023-03-04T22:55:24.652Z,84.71
2023-03-04T22:57:26.246Z,84.73
2023-03-04T22:59:28.163Z,84.67
2023-03-04T23:01:29.731Z,84.76
2023-03-04T23:03:30.748Z,84.89
2023-03-04T23:05:32.633Z,84.76
2023-03-04T23:07:33.967Z,84.74
2023-03-04T23:09:35.388Z,84.78
2023-03-04T23:11:37.214Z,84.86
2023-03-04T23:13:39.106Z,84.91
2023-03-04T23:15:40.199Z,84.89
2023-03-04T23:17:41.821Z,84.74
2023-03-04T23:19:43.389Z,84.79
2023-03-04T23:21:45.172Z,84.72
2023-03-04T23:23:46.224Z,84.6
2023-03-04T23:25:47.886Z,84.71
2023-03-04T23:27:49.920Z,84.72
2023-03-04T23:29:51.369Z,84.65
2023-03-04T23:31:52.402Z,84.75
2023-03-04T23:35:55.045Z,84.9
2023-03-04T23:37:56.979Z,84.97
2023-03-04T23:39:58.937Z,85.05
2023-03-04T23:42:00.918Z,85.14
2023-03-04T23:44:02.601Z,85.3
2023-03-04T23:46:04.491Z,85.26
2023-03-04T23:48:05.861Z,85.37
2023-03-04T23:50:08.770Z,85.4
2023-03-04T23:52:08.670Z,85.43
2023-03-04T23:54:10.516Z,85.49
2023-03-04T23:56:11.687Z,85.59
2023-03-04T23:58:13.280Z,85.86
